createdAt,value
2023-05-10T00:00:33.576Z,87.62
2023-05-10T00:03:00.376Z,87.50
2023-05-10T00:05:27.085Z,87.60
2023-05-10T00:07:53.716Z,87.82
2023-05-10T00:10:20.348Z,87.96
2023-05-10T00:12:47.163Z,87.98
2023-05-10T00:15:13.828Z,87.98
2023-05-10T00:17:40.581Z,87.98
2023-05-10T00:20:07.778Z,87.77
2023-05-10T00:22:34.418Z,87.62
2023-05-10T00:25:01.065Z,88.03
2023-05-10T00:27:27.767Z,88.36
2023-05-10T00:29:54.408Z,88.44
2023-05-10T00:32:21.637Z,88.23
2023-05-10T00:34:48.464Z,88.14
2023-05-10T00:37:15.070Z,88.07
2023-05-10T00:39:41.714Z,88.21
2023-05-10T00:42:08.425Z,88.42
2023-05-10T00:44:35.121Z,88.63
2023-05-10T00:47:01.842Z,88.58
2023-05-10T00:49:28.563Z,88.62
2023-05-10T00:51:55.252Z,89.07
2023-05-10T00:54:22.004Z,89.06
2023-05-10T00:56:50.298Z,89.00
2023-05-10T00:59:18.117Z,89.03
2023-05-10T01:01:47.785Z,88.98
2023-05-10T01:04:14.992Z,89.04
2023-05-10T01:06:42.328Z,89.01
2023-05-10T01:09:09.127Z,88.88
2023-05-10T01:11:36.485Z,88.92
2023-05-10T01:14:03.121Z,88.88
2023-05-10T01:16:30.975Z,88.61
2023-05-10T01:18:57.662Z,88.54
2023-05-10T01:21:28.425Z,88.41
2023-05-10T01:24:13.628Z,88.41
2023-05-10T01:27:11.367Z,88.07
2023-05-10T01:30:21.674Z,87.63
2023-05-10T01:32:58.788Z,87.34
2023-05-10T01:35:42.287Z,87.38
2023-05-10T01:38:31.432Z,86.79
2023-05-10T01:41:16.593Z,86.46
2023-05-10T01:44:04.647Z,86.64
2023-05-10T01:46:38.259Z,85.76
2023-05-10T01:49:10.885Z,85.26
2023-05-10T01:51:41.277Z,84.74
2023-05-10T01:54:08.032Z,84.42
2023-05-10T01:56:34.711Z,84.22
2023-05-10T01:59:02.006Z,83.73
2023-05-10T02:01:29.026Z,83.89
2023-05-10T02:03:56.379Z,83.95
2023-05-10T02:06:23.182Z,84.30
2023-05-10T02:08:50.494Z,84.32
2023-05-10T02:11:17.159Z,83.71
2023-05-10T02:13:44.606Z,83.33
2023-05-10T02:16:11.278Z,83.18
2023-05-10T02:18:37.977Z,83.67
2023-05-10T02:21:04.739Z,83.60
2023-05-10T02:23:31.464Z,83.22
2023-05-10T02:25:58.101Z,83.29
2023-05-10T02:28:24.883Z,82.89
2023-05-10T02:30:52.092Z,83.06
2023-05-10T02:33:19.056Z,82.62
2023-05-10T02:35:45.746Z,82.75
2023-05-10T02:38:12.862Z,81.97
2023-05-10T02:40:39.481Z,80.96
2023-05-10T02:43:06.146Z,81.47
2023-05-10T02:45:32.812Z,81.55
2023-05-10T02:47:59.555Z,82.07
2023-05-10T02:50:28.452Z,82.39
2023-05-10T02:52:55.500Z,82.33
2023-05-10T02:55:27.108Z,80.98
2023-05-10T02:57:57.999Z,80.04
2023-05-10T03:00:25.941Z,81.02
2023-05-10T03:02:52.991Z,80.93
2023-05-10T03:05:20.164Z,80.94
2023-05-10T03:07:46.871Z,80.77
2023-05-10T03:10:13.678Z,81.78
2023-05-10T03:13:19.575Z,82.71
2023-05-10T03:16:01.524Z,83.20
2023-05-10T03:18:45.966Z,83.74
2023-05-10T03:21:13.553Z,84.03
2023-05-10T03:23:43.015Z,83.80
2023-05-10T03:26:09.705Z,84.16
2023-05-10T03:28:36.607Z,84.75
2023-05-10T03:31:04.211Z,85.45
2023-05-10T03:33:30.840Z,85.89
2023-05-10T03:35:57.536Z,86.10
2023-05-10T03:38:24.253Z,86.17
2023-05-10T03:40:51.074Z,86.25
2023-05-10T03:43:17.688Z,86.40
2023-05-10T03:45:44.367Z,86.57
2023-05-10T03:48:11.205Z,86.79
2023-05-10T03:50:37.884Z,86.87
2023-05-10T03:53:04.512Z,86.97
2023-05-10T03:55:31.387Z,86.65
2023-05-10T03:57:58.152Z,86.75
2023-05-10T04:00:24.906Z,86.88
2023-05-10T04:02:51.811Z,86.46
2023-05-10T04:05:18.658Z,86.36
2023-05-10T04:07:45.450Z,85.96
2023-05-10T04:10:12.474Z,85.45
2023-05-10T04:12:39.229Z,85.05
2023-05-10T04:15:06.346Z,84.85
2023-05-10T04:17:33.254Z,84.60
2023-05-10T04:19:59.909Z,84.07
2023-05-10T04:22:26.624Z,84.81
2023-05-10T04:24:53.352Z,85.25
2023-05-10T04:27:20.038Z,85.38
2023-05-10T04:29:46.684Z,84.64
2023-05-10T04:32:13.386Z,84.46
2023-05-10T04:34:40.029Z,84.32
2023-05-10T04:37:07.412Z,84.64
2023-05-10T04:39:34.200Z,84.68
2023-05-10T04:42:00.874Z,84.90
2023-05-10T04:44:27.792Z,85.10
2023-05-10T04:46:54.472Z,85.06
2023-05-10T04:49:21.645Z,84.79
2023-05-10T04:51:48.280Z,84.86
2023-05-10T04:54:14.985Z,84.35
2023-05-10T04:56:41.960Z,84.37
2023-05-10T04:59:08.611Z,84.18
2023-05-10T05:01:35.737Z,83.63
2023-05-10T05:04:02.569Z,83.67
2023-05-10T05:06:29.945Z,83.20
2023-05-10T05:08:56.706Z,83.32
2023-05-10T05:11:23.435Z,83.32
2023-05-10T05:13:50.158Z,82.56
2023-05-10T05:16:16.960Z,82.52
2023-05-10T05:18:43.753Z,82.15
2023-05-10T05:21:17.483Z,82.06
2023-05-10T05:23:44.295Z,81.64
2023-05-10T05:26:11.677Z,82.56
2023-05-10T05:28:38.642Z,82.78
2023-05-10T05:31:06.703Z,81.51
2023-05-10T05:33:33.397Z,82.07
2023-05-10T05:36:06.625Z,82.15
2023-05-10T05:38:33.392Z,82.29
2023-05-10T05:41:00.057Z,81.75
2023-05-10T05:43:26.821Z,82.61
2023-05-10T05:45:54.629Z,82.12
2023-05-10T05:48:21.490Z,81.48
2023-05-10T05:50:48.175Z,81.01
2023-05-10T05:53:14.899Z,80.30
2023-05-10T05:55:41.572Z,80.65
2023-05-10T05:58:08.391Z,80.26
2023-05-10T06:00:35.175Z,79.37
2023-05-10T06:03:01.971Z,79.64
2023-05-10T06:05:28.827Z,79.40
2023-05-10T06:07:55.486Z,76.83
2023-05-10T06:10:22.130Z,77.37
2023-05-10T06:12:48.901Z,76.07
2023-05-10T06:15:15.699Z,75.21
2023-05-10T06:17:43.756Z,75.28
2023-05-10T06:20:10.950Z,75.37
2023-05-10T06:22:37.663Z,73.03
2023-05-10T06:25:04.483Z,71.34
2023-05-10T06:27:31.278Z,72.25
2023-05-10T06:30:11.702Z,72.10
2023-05-10T06:32:38.911Z,72.24
2023-05-10T06:35:05.994Z,73.20
2023-05-10T06:37:32.656Z,73.24
2023-05-10T06:39:59.368Z,71.95
2023-05-10T06:42:26.586Z,72.27
2023-05-10T06:44:53.241Z,72.22
2023-05-10T06:47:20.015Z,74.01
2023-05-10T06:49:46.704Z,71.81
2023-05-10T06:52:13.393Z,71.26
2023-05-10T06:54:40.106Z,72.04
2023-05-10T06:57:15.991Z,75.63
2023-05-10T06:59:50.362Z,71.87
2023-05-10T07:02:17.645Z,71.39
2023-05-10T07:04:44.518Z,71.20
2023-05-10T07:07:11.355Z,72.10
2023-05-10T07:09:38.047Z,70.52
2023-05-10T07:12:05.333Z,69.76
2023-05-10T07:14:32.576Z,71.73
2023-05-10T07:16:59.423Z,71.18
2023-05-10T07:19:26.357Z,69.82
2023-05-10T07:21:53.212Z,70.95
2023-05-10T07:24:19.949Z,72.41
2023-05-10T07:26:46.697Z,70.62
2023-05-10T07:29:13.393Z,74.75
2023-05-10T07:31:40.286Z,70.69
2023-05-10T07:34:07.067Z,69.87
2023-05-10T07:36:33.811Z,71.09
2023-05-10T07:39:00.534Z,71.82
2023-05-10T07:41:27.218Z,71.70
2023-05-10T07:43:53.939Z,72.93
2023-05-10T07:46:20.863Z,71.42
2023-05-10T07:48:47.489Z,69.97
2023-05-10T07:51:14.674Z,68.14
2023-05-10T07:53:41.515Z,68.14
2023-05-10T07:56:31.328Z,69.29
2023-05-10T07:58:58.169Z,69.23
2023-05-10T08:01:24.922Z,68.79
2023-05-10T08:03:52.313Z,70.30
2023-05-10T08:06:19.498Z,69.69
2023-05-10T08:08:51.457Z,69.77
2023-05-10T08:11:18.579Z,69.10
2023-05-10T08:13:46.197Z,69.72
2023-05-10T08:16:12.894Z,68.82
2023-05-10T08:18:39.981Z,68.79
2023-05-10T08:21:06.713Z,67.73
2023-05-10T08:23:33.475Z,69.27
2023-05-10T08:26:00.508Z,70.30
2023-05-10T08:28:27.203Z,70.13
2023-05-10T08:30:53.846Z,70.48
2023-05-10T08:33:20.604Z,69.90
2023-05-10T08:35:47.273Z,67.42
2023-05-10T08:38:13.962Z,68.90
2023-05-10T08:40:44.337Z,67.23
2023-05-10T08:43:12.546Z,67.07
2023-05-10T08:45:40.412Z,64.18
2023-05-10T08:48:08.106Z,62.11
2023-05-10T08:50:38.670Z,64.91
2023-05-10T08:53:07.734Z,64.97
2023-05-10T08:55:41.114Z,63.30
2023-05-10T08:58:07.922Z,64.51
2023-05-10T09:00:34.835Z,61.33
2023-05-10T09:03:02.154Z,60.28
2023-05-10T09:05:29.269Z,64.43
2023-05-10T09:07:55.947Z,57.87
2023-05-10T09:10:22.786Z,56.20
2023-05-10T09:12:49.629Z,58.68
2023-05-10T09:15:16.826Z,58.61
2023-05-10T09:17:43.720Z,52.58
2023-05-10T09:20:10.850Z,53.82
2023-05-10T09:22:38.780Z,49.82
2023-05-10T09:25:12.260Z,50.21
2023-05-10T09:27:39.821Z,52.02
2023-05-10T09:30:07.659Z,45.62
2023-05-10T09:32:38.095Z,50.84
2023-05-10T09:35:18.236Z,54.50
2023-05-10T09:37:47.227Z,48.77
2023-05-10T09:40:21.499Z,49.26
2023-05-10T09:43:11.903Z,47.59
2023-05-10T09:45:39.271Z,50.41
2023-05-10T09:48:06.335Z,49.92
2023-05-10T09:50:33.140Z,47.94
2023-05-10T09:53:01.316Z,48.74
2023-05-10T09:55:37.051Z,48.60
2023-05-10T09:58:03.851Z,48.78
2023-05-10T10:00:35.366Z,50.73
2023-05-10T10:03:02.393Z,50.25
2023-05-10T10:05:30.137Z,51.73
2023-05-10T10:07:57.907Z,51.67
2023-05-10T10:10:25.939Z,48.87
2023-05-10T10:12:53.168Z,43.22
2023-05-10T10:15:20.278Z,43.34
2023-05-10T10:17:47.215Z,47.27
2023-05-10T10:20:14.134Z,45.73
2023-05-10T10:22:40.978Z,45.51
2023-05-10T10:25:09.701Z,46.16
2023-05-10T10:27:54.450Z,43.46
2023-05-10T10:30:30.050Z,41.34
2023-05-10T10:33:20.210Z,45.05
2023-05-10T10:35:54.496Z,43.49
2023-05-10T10:38:21.532Z,42.79
2023-05-10T10:40:48.142Z,47.62
2023-05-10T10:43:28.136Z,42.44
2023-05-10T10:46:16.532Z,44.72
2023-05-10T10:48:48.186Z,43.74
2023-05-10T10:51:15.018Z,45.90
2023-05-10T10:53:41.931Z,47.79
2023-05-10T10:56:14.669Z,51.90
2023-05-10T10:58:41.462Z,43.71
2023-05-10T11:01:17.839Z,45.85
2023-05-10T11:03:59.769Z,44.37
2023-05-10T11:06:33.634Z,43.80
2023-05-10T11:09:00.599Z,45.49
2023-05-10T11:11:27.210Z,44.90
2023-05-10T11:13:53.829Z,45.78
2023-05-10T11:16:30.725Z,45.89
2023-05-10T11:19:04.320Z,45.23
2023-05-10T11:21:32.022Z,46.53
2023-05-10T11:23:59.815Z,45.45
2023-05-10T11:26:36.259Z,44.17
2023-05-10T11:29:04.098Z,46.38
2023-05-10T11:31:30.954Z,47.17
2023-05-10T11:33:58.813Z,47.40
2023-05-10T11:36:28.352Z,50.76
2023-05-10T11:38:55.686Z,47.31
2023-05-10T11:41:23.414Z,48.15
2023-05-10T11:43:54.552Z,46.42
2023-05-10T11:46:22.055Z,47.58
2023-05-10T11:48:51.595Z,48.73
2023-05-10T11:51:24.412Z,49.05
2023-05-10T11:53:52.430Z,50.36
2023-05-10T11:56:19.033Z,49.84
2023-05-10T11:58:46.055Z,46.09
2023-05-10T12:01:12.710Z,46.51
2023-05-10T12:03:39.474Z,48.30
2023-05-10T12:06:06.389Z,47.55
2023-05-10T12:08:33.104Z,47.27
2023-05-10T12:11:08.093Z,48.62
2023-05-10T12:13:39.376Z,47.66
2023-05-10T12:16:19.269Z,50.93
2023-05-10T12:18:46.627Z,49.02
2023-05-10T12:21:13.714Z,49.27
2023-05-10T12:23:40.606Z,50.96
2023-05-10T12:26:07.363Z,50.37
2023-05-10T12:28:34.185Z,50.65
2023-05-10T12:31:01.024Z,50.72
2023-05-10T12:33:27.732Z,53.15
2023-05-10T12:35:55.183Z,51.36
2023-05-10T12:38:43.231Z,52.72
2023-05-10T12:41:11.270Z,51.56
2023-05-10T12:43:38.050Z,52.53
2023-05-10T12:46:11.489Z,54.17
2023-05-10T12:48:38.547Z,51.50
2023-05-10T12:51:05.762Z,51.89
2023-05-10T12:53:32.478Z,51.57
2023-05-10T12:55:59.240Z,53.74
2023-05-10T12:58:35.033Z,54.31
2023-05-10T13:01:03.120Z,55.35
2023-05-10T13:03:29.864Z,54.08
2023-05-10T13:05:56.565Z,54.81
2023-05-10T13:08:23.374Z,55.14
2023-05-10T13:10:50.108Z,56.32
2023-05-10T13:13:16.823Z,55.53
2023-05-10T13:15:43.526Z,54.83
2023-05-10T13:18:10.631Z,54.61
2023-05-10T13:20:37.525Z,57.26
2023-05-10T13:23:04.243Z,56.20
2023-05-10T13:25:31.117Z,57.50
2023-05-10T13:27:57.818Z,58.70
2023-05-10T13:30:25.001Z,57.98
2023-05-10T13:32:51.853Z,57.66
2023-05-10T13:35:18.522Z,58.76
2023-05-10T13:37:45.160Z,58.24
2023-05-10T13:40:11.948Z,58.30
2023-05-10T13:42:38.583Z,59.40
2023-05-10T13:45:05.751Z,58.57
2023-05-10T13:47:32.437Z,59.26
2023-05-10T13:49:59.489Z,60.54
2023-05-10T13:52:26.944Z,59.41
2023-05-10T13:54:55.969Z,61.02
2023-05-10T13:57:23.141Z,61.04
2023-05-10T13:59:50.013Z,61.05
2023-05-10T14:02:16.639Z,62.00
2023-05-10T14:04:43.268Z,61.60
2023-05-10T14:07:09.955Z,61.78
2023-05-10T14:09:36.642Z,61.45
2023-05-10T14:12:03.339Z,61.58
2023-05-10T14:14:30.513Z,62.35
2023-05-10T14:16:57.223Z,61.86
2023-05-10T14:19:23.928Z,62.48
2023-05-10T14:21:50.634Z,61.51
2023-05-10T14:24:17.336Z,63.01
2023-05-10T14:26:43.953Z,61.95
2023-05-10T14:29:12.437Z,63.00
2023-05-10T14:31:39.566Z,63.77
2023-05-10T14:34:06.838Z,64.12
2023-05-10T14:36:33.652Z,64.29
2023-05-10T14:39:00.358Z,63.95
2023-05-10T14:41:26.969Z,63.54
2023-05-10T14:43:53.847Z,63.31
2023-05-10T14:46:20.897Z,63.60
2023-05-10T14:48:47.658Z,63.44
2023-05-10T14:51:14.452Z,64.00
2023-05-10T14:53:41.187Z,64.59
2023-05-10T14:56:08.093Z,64.42
2023-05-10T14:58:34.816Z,64.51
2023-05-10T15:01:01.895Z,64.52
2023-05-10T15:03:29.320Z,65.45
2023-05-10T15:05:58.674Z,64.88
2023-05-10T15:08:28.857Z,65.15
2023-05-10T15:10:56.944Z,64.95
2023-05-10T15:13:23.675Z,64.48
2023-05-10T15:15:50.388Z,64.79
2023-05-10T15:18:17.809Z,64.52
2023-05-10T15:20:44.526Z,65.15
2023-05-10T15:23:11.142Z,65.34
2023-05-10T15:25:38.566Z,64.99
2023-05-10T15:28:05.296Z,65.89
2023-05-10T15:30:32.055Z,65.82
2023-05-10T15:32:59.068Z,66.31
2023-05-10T15:35:27.055Z,66.29
2023-05-10T15:37:53.667Z,66.20
2023-05-10T15:40:20.484Z,66.83
2023-05-10T15:42:47.218Z,66.00
2023-05-10T15:45:13.975Z,66.42
2023-05-10T15:47:40.934Z,67.13
2023-05-10T15:50:08.546Z,66.67
2023-05-10T15:52:36.119Z,66.58
2023-05-10T15:55:03.606Z,66.58
2023-05-10T15:57:30.416Z,66.86
2023-05-10T15:59:57.146Z,67.45
2023-05-10T16:02:24.113Z,67.53
2023-05-10T16:04:51.678Z,66.87
2023-05-10T16:07:18.491Z,67.21
2023-05-10T16:09:45.152Z,67.66
2023-05-10T16:12:11.881Z,67.49
2023-05-10T16:14:38.585Z,67.77
2023-05-10T16:17:05.477Z,68.11
2023-05-10T16:19:32.378Z,67.76
2023-05-10T16:21:59.120Z,67.93
2023-05-10T16:24:26.594Z,68.03
2023-05-10T16:26:53.403Z,67.82
2023-05-10T16:29:20.009Z,67.92
2023-05-10T16:31:46.967Z,68.26
2023-05-10T16:34:13.717Z,68.40
2023-05-10T16:36:40.513Z,68.46
2023-05-10T16:39:07.172Z,68.60
2023-05-10T16:41:34.580Z,68.40
2023-05-10T16:44:01.844Z,68.52
2023-05-10T16:46:28.643Z,69.05
2023-05-10T16:48:56.050Z,69.70
2023-05-10T16:51:22.697Z,69.43
2023-05-10T16:53:49.798Z,68.82
2023-05-10T16:56:18.434Z,68.35
2023-05-10T16:58:45.288Z,68.69
2023-05-10T17:01:12.296Z,69.00
2023-05-10T17:03:39.115Z,69.93
2023-05-10T17:06:06.322Z,69.14
2023-05-10T17:08:33.485Z,69.33
2023-05-10T17:11:04.088Z,69.76
2023-05-10T17:13:30.732Z,70.31
2023-05-10T17:15:57.495Z,69.79
2023-05-10T17:18:24.243Z,69.17
2023-05-10T17:20:51.007Z,70.04
2023-05-10T17:23:17.688Z,69.75
2023-05-10T17:25:44.345Z,69.21
2023-05-10T17:28:11.042Z,69.74
2023-05-10T17:30:37.930Z,70.56
2023-05-10T17:33:04.958Z,69.93
2023-05-10T17:35:32.288Z,70.23
2023-05-10T17:37:58.940Z,69.95
2023-05-10T17:40:25.582Z,70.64
2023-05-10T17:42:52.389Z,71.20
2023-05-10T17:45:19.848Z,71.13
2023-05-10T17:47:46.587Z,70.68
2023-05-10T17:50:13.276Z,70.88
2023-05-10T17:52:39.974Z,70.53
2023-05-10T17:55:07.118Z,70.39
2023-05-10T17:57:33.969Z,70.67
2023-05-10T18:00:02.311Z,70.20
2023-05-10T18:02:29.115Z,70.63
2023-05-10T18:04:57.550Z,69.82
2023-05-10T18:07:27.157Z,69.93
2023-05-10T18:09:53.884Z,70.26
2023-05-10T18:12:20.488Z,70.75
2023-05-10T18:14:47.236Z,71.01
2023-05-10T18:17:13.894Z,70.32
2023-05-10T18:19:40.740Z,71.00
2023-05-10T18:22:10.517Z,71.27
2023-05-10T18:24:39.436Z,71.38
2023-05-10T18:27:08.608Z,71.15
2023-05-10T18:29:36.220Z,70.51
2023-05-10T18:32:03.048Z,70.53
2023-05-10T18:34:29.701Z,70.04
2023-05-10T18:36:56.406Z,70.62
2023-05-10T18:39:23.255Z,71.26
2023-05-10T18:41:50.250Z,70.70
2023-05-10T18:44:16.964Z,70.36
2023-05-10T18:46:43.731Z,70.48
2023-05-10T18:49:10.404Z,70.70
2023-05-10T18:51:37.036Z,70.38
2023-05-10T18:54:03.823Z,70.85
2023-05-10T18:56:30.486Z,71.29
2023-05-10T18:58:57.206Z,71.07
2023-05-10T19:01:23.928Z,70.38
2023-05-10T19:03:50.594Z,70.03
2023-05-10T19:06:17.338Z,70.50
2023-05-10T19:08:43.993Z,71.04
2023-05-10T19:11:10.778Z,70.99
2023-05-10T19:13:37.484Z,71.50
2023-05-10T19:16:05.893Z,71.18
2023-05-10T19:18:33.809Z,70.57
2023-05-10T19:21:04.520Z,70.93
2023-05-10T19:23:35.214Z,71.41
2023-05-10T19:26:02.251Z,70.95
2023-05-10T19:28:28.895Z,70.30
2023-05-10T19:30:55.606Z,69.89
2023-05-10T19:33:22.302Z,70.05
2023-05-10T19:35:52.529Z,70.78
2023-05-10T19:38:25.523Z,71.70
2023-05-10T19:40:59.250Z,71.65
2023-05-10T19:43:29.917Z,71.33
2023-05-10T19:46:02.330Z,71.51
2023-05-10T19:48:29.186Z,71.62
2023-05-10T19:51:00.928Z,71.08
2023-05-10T19:53:27.761Z,70.71
2023-05-10T19:55:54.753Z,71.19
2023-05-10T19:58:21.469Z,71.57
2023-05-10T20:00:48.096Z,71.76
2023-05-10T20:03:15.385Z,72.12
2023-05-10T20:05:42.053Z,72.93
2023-05-10T20:08:08.733Z,72.63
2023-05-10T20:10:35.373Z,72.09
2023-05-10T20:13:02.077Z,71.91
2023-05-10T20:15:29.025Z,72.28
2023-05-10T20:17:55.885Z,72.01
2023-05-10T20:20:22.837Z,72.19
2023-05-10T20:22:49.716Z,72.81
2023-05-10T20:25:23.993Z,73.19
2023-05-10T20:27:53.417Z,72.74
2023-05-10T20:30:26.661Z,72.28
2023-05-10T20:32:53.725Z,72.34
2023-05-10T20:35:21.004Z,71.75
2023-05-10T20:37:48.584Z,71.56
2023-05-10T20:40:18.704Z,71.46
2023-05-10T20:42:45.924Z,71.43
2023-05-10T20:45:12.782Z,71.60
2023-05-10T20:47:39.535Z,71.50
2023-05-10T20:50:06.903Z,71.62
2023-05-10T20:52:33.668Z,71.41
2023-05-10T20:55:00.429Z,71.10
2023-05-10T20:57:27.041Z,70.80
2023-05-10T20:59:53.812Z,71.83
2023-05-10T21:02:20.662Z,72.32
2023-05-10T21:04:47.348Z,73.25
2023-05-10T21:07:14.108Z,73.41
2023-05-10T21:09:40.722Z,74.00
2023-05-10T21:12:08.064Z,74.18
2023-05-10T21:14:35.650Z,74.14
2023-05-10T21:17:02.294Z,74.10
2023-05-10T21:19:28.977Z,73.82
2023-05-10T21:21:57.204Z,73.33
2023-05-10T21:24:23.950Z,73.17
2023-05-10T21:26:50.624Z,73.70
2023-05-10T21:29:17.325Z,73.65
2023-05-10T21:31:44.007Z,73.67
2023-05-10T21:34:10.760Z,73.58
2023-05-10T21:36:37.858Z,73.79
2023-05-10T21:39:04.551Z,73.90
2023-05-10T21:41:31.201Z,75.53
2023-05-10T21:43:57.849Z,75.48
2023-05-10T21:46:24.727Z,76.05
2023-05-10T21:48:51.361Z,76.46
2023-05-10T21:51:18.072Z,76.29
2023-05-10T21:53:44.774Z,75.95
2023-05-10T21:56:11.665Z,75.28
2023-05-10T21:58:38.291Z,75.13
2023-05-10T22:01:05.022Z,75.14
2023-05-10T22:03:31.720Z,75.36
2023-05-10T22:05:58.435Z,76.06
2023-05-10T22:08:25.177Z,75.59
2023-05-10T22:10:52.108Z,75.02
2023-05-10T22:13:18.893Z,75.23
2023-05-10T22:15:45.595Z,75.58
2023-05-10T22:18:12.381Z,75.84
2023-05-10T22:20:39.613Z,75.41
2023-05-10T22:23:06.755Z,75.19
2023-05-10T22:25:33.387Z,74.53
2023-05-10T22:28:00.044Z,74.33
2023-05-10T22:30:26.694Z,74.48
2023-05-10T22:32:53.546Z,75.04
2023-05-10T22:35:20.415Z,75.15
2023-05-10T22:37:47.337Z,74.97
2023-05-10T22:40:14.018Z,74.87
2023-05-10T22:42:40.845Z,75.20
2023-05-10T22:45:08.135Z,75.34
2023-05-10T22:47:34.857Z,75.67
2023-05-10T22:50:03.633Z,76.32
2023-05-10T22:52:30.316Z,76.69
2023-05-10T22:54:57.078Z,76.43
2023-05-10T22:57:23.845Z,76.20
2023-05-10T22:59:50.434Z,76.17
2023-05-10T23:02:17.093Z,75.81
2023-05-10T23:04:43.954Z,75.54
2023-05-10T23:07:11.532Z,75.46
2023-05-10T23:09:38.135Z,75.22
2023-05-10T23:12:04.930Z,74.78
2023-05-10T23:14:31.535Z,74.97
2023-05-10T23:16:58.125Z,75.26
2023-05-10T23:19:24.759Z,75.39
2023-05-10T23:21:51.467Z,75.32
2023-05-10T23:24:18.126Z,75.38
2023-05-10T23:26:46.436Z,75.44
2023-05-10T23:29:13.036Z,74.92
2023-05-10T23:31:45.457Z,75.08
2023-05-10T23:34:12.528Z,75.49
2023-05-10T23:36:39.386Z,75.49
2023-05-10T23:39:06.692Z,75.71
2023-05-10T23:41:33.425Z,76.01
2023-05-10T23:44:01.509Z,75.92
2023-05-10T23:46:28.559Z,76.03
2023-05-10T23:48:55.175Z,76.93
2023-05-10T23:51:21.826Z,77.16
2023-05-10T23:53:48.486Z,77.00
2023-05-10T23:56:15.142Z,77.08
2023-05-10T23:58:42.665Z,77.37
